createdAt,value
2023-02-20T00:00:34.317Z,21.39
2023-02-20T00:03:04.868Z,21.25
2023-02-20T00:05:34.780Z,21.16
2023-02-20T00:08:04.798Z,21.07
2023-02-20T00:10:36.366Z,21.06
2023-02-20T00:13:06.290Z,20.99
2023-02-20T00:15:38.821Z,20.92
2023-02-20T00:18:08.902Z,20.94
2023-02-20T00:20:39.033Z,20.86
2023-02-20T00:23:09.071Z,20.84
2023-02-20T00:25:38.855Z,20.81
2023-02-20T00:28:08.660Z,20.72
2023-02-20T00:30:38.662Z,20.65
2023-02-20T00:33:08.287Z,20.58
2023-02-20T00:35:40.123Z,20.58
2023-02-20T00:38:10.073Z,20.54
2023-02-20T00:40:39.844Z,20.47
2023-02-20T00:43:09.472Z,20.40
2023-02-20T00:45:39.443Z,20.40
2023-02-20T00:48:12.280Z,20.35
2023-02-20T00:50:42.812Z,20.35
2023-02-20T00:53:14.486Z,20.21
2023-02-20T00:55:45.515Z,20.26
2023-02-20T00:58:15.449Z,20.23
2023-02-20T01:00:46.369Z,20.20
2023-02-20T01:03:16.850Z,20.16
2023-02-20T01:05:47.385Z,20.12
2023-02-20T01:08:17.463Z,20.13
2023-02-20T01:10:47.333Z,20.05
2023-02-20T01:13:18.044Z,20.03
2023-02-20T01:15:48.090Z,20.06
2023-02-20T01:18:18.375Z,20.07
2023-02-20T01:20:48.271Z,20.05
2023-02-20T01:23:18.190Z,20.06
2023-02-20T01:25:48.016Z,19.97
2023-02-20T01:28:17.593Z,20.00
2023-02-20T01:30:47.457Z,20.07
2023-02-20T01:33:17.432Z,20.09
2023-02-20T01:35:47.251Z,20.03
2023-02-20T01:38:17.109Z,20.05
2023-02-20T01:40:50.960Z,20.07
2023-02-20T01:43:20.983Z,20.12
2023-02-20T01:45:50.797Z,20.12
2023-02-20T01:48:27.809Z,20.07
2023-02-20T01:51:01.072Z,20.00
2023-02-20T01:53:33.969Z,20.10
2023-02-20T01:56:09.246Z,20.14
2023-02-20T01:58:43.333Z,20.16
2023-02-20T02:01:14.419Z,20.20
2023-02-20T02:03:48.617Z,20.07
2023-02-20T02:06:19.173Z,20.01
2023-02-20T02:08:49.077Z,20.05
2023-02-20T02:11:25.456Z,20.07
2023-02-20T02:13:55.523Z,20.07
2023-02-20T02:16:47.245Z,20.03
2023-02-20T02:19:47.238Z,19.94
2023-02-20T02:23:07.790Z,19.89
2023-02-20T02:26:12.210Z,19.82
2023-02-20T02:29:12.216Z,19.82
2023-02-20T02:32:26.887Z,19.79
2023-02-20T02:35:24.070Z,19.77
2023-02-20T02:38:20.144Z,19.69
2023-02-20T02:41:15.619Z,19.79
2023-02-20T02:44:11.582Z,19.79
2023-02-20T02:47:08.952Z,19.79
2023-02-20T02:49:58.032Z,19.80
2023-02-20T02:52:49.733Z,19.83
2023-02-20T02:55:25.971Z,19.79
2023-02-20T02:57:56.462Z,19.73
2023-02-20T03:00:43.835Z,19.69
2023-02-20T03:03:17.778Z,19.65
2023-02-20T03:05:50.375Z,19.65
2023-02-20T03:08:23.407Z,19.61
2023-02-20T03:10:55.021Z,19.58
2023-02-20T03:13:48.140Z,19.52
2023-02-20T03:16:23.036Z,19.51
2023-02-20T03:18:56.605Z,19.51
2023-02-20T03:21:28.419Z,19.42
2023-02-20T03:24:02.973Z,19.41
2023-02-20T03:26:36.883Z,19.44
2023-02-20T03:29:20.450Z,19.34
2023-02-20T03:32:20.681Z,19.41
2023-02-20T03:35:10.531Z,19.46
2023-02-20T03:38:00.666Z,19.48
2023-02-20T03:40:52.461Z,19.49
2023-02-20T03:43:27.245Z,19.51
2023-02-20T03:46:08.266Z,19.62
2023-02-20T03:48:58.478Z,19.55
2023-02-20T03:51:47.147Z,19.48
2023-02-20T03:54:31.685Z,19.52
2023-02-20T03:57:12.757Z,19.54
2023-02-20T04:00:16.912Z,19.56
2023-02-20T04:02:57.018Z,19.61
2023-02-20T04:05:39.266Z,19.63
2023-02-20T04:08:12.269Z,19.59
2023-02-20T04:11:11.095Z,19.63
2023-02-20T04:13:42.041Z,19.63
2023-02-20T04:16:13.400Z,19.63
2023-02-20T04:18:43.434Z,19.58
2023-02-20T04:21:33.328Z,19.38
2023-02-20T04:24:14.388Z,19.41
2023-02-20T04:26:45.444Z,19.45
2023-02-20T04:29:16.459Z,19.41
2023-02-20T04:31:47.237Z,19.39
2023-02-20T04:34:19.006Z,19.39
2023-02-20T04:36:50.563Z,19.28
2023-02-20T04:39:23.328Z,19.31
2023-02-20T04:41:53.416Z,19.34
2023-02-20T04:44:33.112Z,19.41
2023-02-20T04:47:09.932Z,19.46
2023-02-20T04:49:40.184Z,19.46
2023-02-20T04:52:12.114Z,19.45
2023-02-20T04:54:42.499Z,19.48
2023-02-20T04:57:14.411Z,19.52
2023-02-20T04:59:44.565Z,19.56
2023-02-20T05:02:14.571Z,19.51
2023-02-20T05:04:44.212Z,19.39
2023-02-20T05:07:14.056Z,19.34
2023-02-20T05:09:45.416Z,19.24
2023-02-20T05:12:15.210Z,19.14
2023-02-20T05:14:45.194Z,19.29
2023-02-20T05:17:14.919Z,19.42
2023-02-20T05:19:44.475Z,19.35
2023-02-20T05:22:20.554Z,19.42
2023-02-20T05:24:52.263Z,19.41
2023-02-20T05:27:24.162Z,19.38
2023-02-20T05:29:59.496Z,19.34
2023-02-20T05:32:31.157Z,19.34
2023-02-20T05:35:00.903Z,19.32
2023-02-20T05:37:32.033Z,19.36
2023-02-20T05:40:03.153Z,19.31
2023-02-20T05:42:32.688Z,19.29
2023-02-20T05:45:03.406Z,19.29
2023-02-20T05:47:33.464Z,19.32
2023-02-20T05:50:03.301Z,19.36
2023-02-20T05:52:33.060Z,19.44
2023-02-20T05:55:02.661Z,19.41
2023-02-20T05:57:32.602Z,19.36
2023-02-20T06:00:02.338Z,19.36
2023-02-20T06:02:41.239Z,19.35
2023-02-20T06:05:11.236Z,19.36
2023-02-20T06:07:41.026Z,19.36
2023-02-20T06:10:10.925Z,19.32
2023-02-20T06:12:40.552Z,19.36
2023-02-20T06:15:10.489Z,19.38
2023-02-20T06:17:40.237Z,19.44
2023-02-20T06:20:11.094Z,19.41
2023-02-20T06:22:40.854Z,19.32
2023-02-20T06:25:11.511Z,19.24
2023-02-20T06:27:41.562Z,19.17
2023-02-20T06:30:12.161Z,19.07
2023-02-20T06:32:42.441Z,19.10
2023-02-20T06:35:13.632Z,19.11
2023-02-20T06:37:44.999Z,19.00
2023-02-20T06:40:14.842Z,19.03
2023-02-20T06:42:44.852Z,19.08
2023-02-20T06:45:15.496Z,19.06
2023-02-20T06:47:45.711Z,19.00
2023-02-20T06:50:15.468Z,18.91
2023-02-20T06:52:45.247Z,18.84
2023-02-20T06:55:15.236Z,18.90
2023-02-20T06:57:45.924Z,18.88
2023-02-20T07:00:16.444Z,18.86
2023-02-20T07:02:46.426Z,18.80
2023-02-20T07:05:16.229Z,18.77
2023-02-20T07:07:45.866Z,18.73
2023-02-20T07:10:15.781Z,18.71
2023-02-20T07:12:45.318Z,18.71
2023-02-20T07:15:15.228Z,18.74
2023-02-20T07:17:44.782Z,18.73
2023-02-20T07:20:15.771Z,18.76
2023-02-20T07:22:52.976Z,18.81
2023-02-20T07:25:24.156Z,18.77
2023-02-20T07:27:53.697Z,18.78
2023-02-20T07:30:26.250Z,18.84
2023-02-20T07:32:55.551Z,18.87
2023-02-20T07:35:24.984Z,18.76
2023-02-20T07:37:55.940Z,18.78
2023-02-20T07:40:25.641Z,18.71
2023-02-20T07:42:55.609Z,18.71
2023-02-20T07:45:25.962Z,18.80
2023-02-20T07:47:55.820Z,18.80
2023-02-20T07:50:26.633Z,18.84
2023-02-20T07:52:56.405Z,18.86
2023-02-20T07:55:26.364Z,18.80
2023-02-20T07:57:59.244Z,18.84
2023-02-20T08:00:32.012Z,18.80
2023-02-20T08:03:01.657Z,18.77
2023-02-20T08:05:40.182Z,18.77
2023-02-20T08:08:17.017Z,18.80
2023-02-20T08:10:47.073Z,18.73
2023-02-20T08:13:17.957Z,18.70
2023-02-20T08:15:49.181Z,18.71
2023-02-20T08:18:23.823Z,18.73
2023-02-20T08:20:54.022Z,18.70
2023-02-20T08:23:27.022Z,18.71
2023-02-20T08:25:56.783Z,18.70
2023-02-20T08:28:26.720Z,18.64
2023-02-20T08:30:56.497Z,18.55
2023-02-20T08:33:26.400Z,18.57
2023-02-20T08:35:58.416Z,18.66
2023-02-20T08:38:48.231Z,18.70
2023-02-20T08:41:18.264Z,18.76
2023-02-20T08:43:47.980Z,18.74
2023-02-20T08:46:18.722Z,18.76
2023-02-20T08:48:48.732Z,18.78
2023-02-20T08:51:22.418Z,18.74
2023-02-20T08:53:52.352Z,18.71
2023-02-20T08:56:24.015Z,18.67
2023-02-20T08:58:54.943Z,18.70
2023-02-20T09:01:24.786Z,18.71
2023-02-20T09:03:55.715Z,18.68
2023-02-20T09:06:27.160Z,18.70
2023-02-20T09:08:57.601Z,18.73
2023-02-20T09:11:27.455Z,18.70
2023-02-20T09:13:57.159Z,18.73
2023-02-20T09:16:27.247Z,18.74
2023-02-20T09:18:57.661Z,18.73
2023-02-20T09:21:29.826Z,18.59
2023-02-20T09:23:59.617Z,18.56
2023-02-20T09:26:29.656Z,18.55
2023-02-20T09:28:59.410Z,18.64
2023-02-20T09:31:29.091Z,18.68
2023-02-20T09:33:58.711Z,18.68
2023-02-20T09:36:29.309Z,18.73
2023-02-20T09:38:59.228Z,18.80
2023-02-20T09:41:53.083Z,18.86
2023-02-20T09:44:28.882Z,18.90
2023-02-20T09:47:05.010Z,18.93
2023-02-20T09:49:38.608Z,18.88
2023-02-20T09:52:14.052Z,18.87
2023-02-20T09:55:06.127Z,18.91
2023-02-20T09:57:39.388Z,19.01
2023-02-20T10:00:14.707Z,19.01
2023-02-20T10:02:55.296Z,19.07
2023-02-20T10:05:29.537Z,19.08
2023-02-20T10:08:00.154Z,19.11
2023-02-20T10:10:40.121Z,19.12
2023-02-20T10:13:24.684Z,19.18
2023-02-20T10:16:03.549Z,19.21
2023-02-20T10:18:51.336Z,19.28
2023-02-20T10:21:45.932Z,19.27
2023-02-20T10:24:44.440Z,19.28
2023-02-20T10:27:22.992Z,19.34
2023-02-20T10:29:55.169Z,19.45
2023-02-20T10:33:08.969Z,19.51
2023-02-20T10:35:47.146Z,19.58
2023-02-20T10:38:22.268Z,19.61
2023-02-20T10:41:18.373Z,19.67
2023-02-20T10:44:06.796Z,19.58
2023-02-20T10:46:48.998Z,19.54
2023-02-20T10:49:44.691Z,19.62
2023-02-20T10:52:32.619Z,19.70
2023-02-20T10:55:27.682Z,19.79
2023-02-20T10:58:34.242Z,19.70
2023-02-20T11:01:15.587Z,19.73
2023-02-20T11:03:55.072Z,19.75
2023-02-20T11:06:32.338Z,19.76
2023-02-20T11:09:02.212Z,19.79
2023-02-20T11:11:33.761Z,19.77
2023-02-20T11:14:40.089Z,19.65
2023-02-20T11:17:17.932Z,19.80
2023-02-20T11:19:55.633Z,19.93
2023-02-20T11:22:47.573Z,20.10
2023-02-20T11:25:20.728Z,20.27
2023-02-20T11:27:53.768Z,20.37
2023-02-20T11:30:34.233Z,20.35
2023-02-20T11:33:10.253Z,20.27
2023-02-20T11:35:53.323Z,20.26
2023-02-20T11:38:23.481Z,20.26
2023-02-20T11:41:01.890Z,20.26
2023-02-20T11:44:00.438Z,20.28
2023-02-20T11:46:30.507Z,20.28
2023-02-20T11:49:11.648Z,20.33
2023-02-20T11:51:45.022Z,20.34
2023-02-20T11:54:30.735Z,20.35
2023-02-20T11:57:18.316Z,20.41
2023-02-20T11:59:53.955Z,20.44
2023-02-20T12:02:27.091Z,20.52
2023-02-20T12:05:16.078Z,20.63
2023-02-20T12:07:54.981Z,20.54
2023-02-20T12:10:33.968Z,20.61
2023-02-20T12:13:04.853Z,20.52
2023-02-20T12:15:35.216Z,20.43
2023-02-20T12:18:16.536Z,20.37
2023-02-20T12:21:16.187Z,20.41
2023-02-20T12:23:50.196Z,20.52
2023-02-20T12:26:36.583Z,20.49
2023-02-20T12:29:28.776Z,20.41
2023-02-20T12:32:27.280Z,20.35
2023-02-20T12:35:02.886Z,20.34
2023-02-20T12:38:02.439Z,20.43
2023-02-20T12:40:35.098Z,20.28
2023-02-20T12:43:16.975Z,20.35
2023-02-20T12:45:49.522Z,20.23
2023-02-20T12:48:31.368Z,20.10
2023-02-20T12:51:20.554Z,19.92
2023-02-20T12:54:26.568Z,19.82
2023-02-20T12:57:08.639Z,19.90
2023-02-20T13:00:02.586Z,19.97
2023-02-20T13:02:43.245Z,19.75
2023-02-20T13:05:21.316Z,19.41
2023-02-20T13:07:58.014Z,19.28
2023-02-20T13:10:32.373Z,19.28
2023-02-20T13:13:02.605Z,19.42
2023-02-20T13:15:55.701Z,19.59
2023-02-20T13:18:32.681Z,19.80
2023-02-20T13:21:13.256Z,19.94
2023-02-20T13:23:43.377Z,19.97
2023-02-20T13:26:32.413Z,19.93
2023-02-20T13:29:28.626Z,19.85
2023-02-20T13:32:21.837Z,19.66
2023-02-20T13:34:51.918Z,19.63
2023-02-20T13:37:39.772Z,19.55
2023-02-20T13:40:29.400Z,19.46
2023-02-20T13:43:16.766Z,19.49
2023-02-20T13:45:51.644Z,19.72
2023-02-20T13:48:31.401Z,20.12
2023-02-20T13:51:23.303Z,20.44
2023-02-20T13:54:02.636Z,20.63
2023-02-20T13:56:46.838Z,20.71
2023-02-20T13:59:19.509Z,20.75
2023-02-20T14:01:57.759Z,20.84
2023-02-20T14:04:27.713Z,20.68
2023-02-20T14:06:59.199Z,20.68
2023-02-20T14:09:34.681Z,20.71
2023-02-20T14:12:15.436Z,20.78
2023-02-20T14:14:47.447Z,20.75
2023-02-20T14:17:23.305Z,20.79
2023-02-20T14:20:13.870Z,20.94
2023-02-20T14:22:44.142Z,21.06
2023-02-20T14:25:13.618Z,21.02
2023-02-20T14:27:43.557Z,21.02
2023-02-20T14:30:18.309Z,20.99
2023-02-20T14:32:53.985Z,20.99
2023-02-20T14:35:35.329Z,21.03
2023-02-20T14:38:27.994Z,21.05
2023-02-20T14:41:01.471Z,21.05
2023-02-20T14:43:31.416Z,21.05
2023-02-20T14:46:07.034Z,21.10
2023-02-20T14:48:43.041Z,21.00
2023-02-20T14:51:17.229Z,20.86
2023-02-20T14:53:57.917Z,20.86
2023-02-20T14:56:28.081Z,20.84
2023-02-20T14:58:58.013Z,20.81
2023-02-20T15:01:38.652Z,20.84
2023-02-20T15:04:20.028Z,20.91
2023-02-20T15:06:52.567Z,20.91
2023-02-20T15:09:24.814Z,20.84
2023-02-20T15:11:58.626Z,20.78
2023-02-20T15:14:30.912Z,20.74
2023-02-20T15:17:21.415Z,20.84
2023-02-20T15:19:53.368Z,20.79
2023-02-20T15:22:37.600Z,20.78
2023-02-20T15:25:27.936Z,20.78
2023-02-20T15:28:19.630Z,20.82
2023-02-20T15:31:04.617Z,20.89
2023-02-20T15:33:41.297Z,20.95
2023-02-20T15:36:18.607Z,20.99
2023-02-20T15:38:48.701Z,20.96
2023-02-20T15:41:19.613Z,20.89
2023-02-20T15:43:51.681Z,20.51
2023-02-20T15:46:22.464Z,20.12
2023-02-20T15:48:52.667Z,19.89
2023-02-20T15:51:24.612Z,19.83
2023-02-20T15:53:57.745Z,20.06
2023-02-20T15:56:35.264Z,20.21
2023-02-20T15:59:13.367Z,20.20
2023-02-20T16:01:43.297Z,20.27
2023-02-20T16:04:19.879Z,20.37
2023-02-20T16:06:52.706Z,20.35
2023-02-20T16:09:22.473Z,20.27
2023-02-20T16:11:52.079Z,20.34
2023-02-20T16:14:23.421Z,20.31
2023-02-20T16:16:55.177Z,20.14
2023-02-20T16:19:40.154Z,20.23
2023-02-20T16:22:13.109Z,20.14
2023-02-20T16:24:45.652Z,20.27
2023-02-20T16:27:23.697Z,20.20
2023-02-20T16:29:57.039Z,19.89
2023-02-20T16:32:28.525Z,19.76
2023-02-20T16:35:00.485Z,19.66
2023-02-20T16:37:30.569Z,19.55
2023-02-20T16:40:00.263Z,19.63
2023-02-20T16:42:35.884Z,19.86
2023-02-20T16:45:18.298Z,19.85
2023-02-20T16:47:55.046Z,19.79
2023-02-20T16:50:31.057Z,19.75
2023-02-20T16:53:06.676Z,19.92
2023-02-20T16:55:39.977Z,20.01
2023-02-20T16:58:10.451Z,20.06
2023-02-20T17:00:55.149Z,19.97
2023-02-20T17:03:28.792Z,19.94
2023-02-20T17:06:01.425Z,19.87
2023-02-20T17:08:31.396Z,19.85
2023-02-20T17:11:02.091Z,19.87
2023-02-20T17:13:32.036Z,20.06
2023-02-20T17:16:01.891Z,20.10
2023-02-20T17:18:31.743Z,20.09
2023-02-20T17:21:01.351Z,19.92
2023-02-20T17:23:31.917Z,19.97
2023-02-20T17:26:01.772Z,19.80
2023-02-20T17:28:31.357Z,19.79
2023-02-20T17:31:01.257Z,19.89
2023-02-20T17:33:31.051Z,19.94
2023-02-20T17:36:00.773Z,19.83
2023-02-20T17:38:30.457Z,19.85
2023-02-20T17:41:01.384Z,19.94
2023-02-20T17:43:31.494Z,19.94
2023-02-20T17:46:01.275Z,20.06
2023-02-20T17:48:30.846Z,19.93
2023-02-20T17:51:00.744Z,19.86
2023-02-20T17:53:30.511Z,19.82
2023-02-20T17:56:00.178Z,19.85
2023-02-20T17:58:29.943Z,19.92
2023-02-20T18:00:59.535Z,19.82
2023-02-20T18:03:29.170Z,19.61
2023-02-20T18:05:59.015Z,19.55
2023-02-20T18:08:28.578Z,19.58
2023-02-20T18:10:58.201Z,19.58
2023-02-20T18:13:28.045Z,19.51
2023-02-20T18:15:57.638Z,19.67
2023-02-20T18:18:27.239Z,19.77
2023-02-20T18:20:57.033Z,19.69
2023-02-20T18:23:26.780Z,19.62
2023-02-20T18:25:57.000Z,19.49
2023-02-20T18:28:26.786Z,19.41
2023-02-20T18:30:56.344Z,19.38
2023-02-20T18:33:26.134Z,19.39
2023-02-20T18:36:07.654Z,19.36
2023-02-20T18:38:38.665Z,19.35
2023-02-20T18:41:13.208Z,19.38
2023-02-20T18:43:47.062Z,19.51
2023-02-20T18:46:27.491Z,19.44
2023-02-20T18:48:59.969Z,19.34
2023-02-20T18:51:35.657Z,19.32
2023-02-20T18:54:10.965Z,19.32
2023-02-20T18:56:40.704Z,19.34
2023-02-20T18:59:10.499Z,19.36
2023-02-20T19:01:43.460Z,19.45
2023-02-20T19:04:15.396Z,19.44
2023-02-20T19:06:45.775Z,19.35
2023-02-20T19:09:21.718Z,19.28
2023-02-20T19:11:57.418Z,19.24
2023-02-20T19:14:29.344Z,19.25
2023-02-20T19:17:00.584Z,19.24
2023-02-20T19:19:32.636Z,19.27
2023-02-20T19:22:02.751Z,19.29
2023-02-20T19:24:32.798Z,19.32
2023-02-20T19:27:02.556Z,19.29
2023-02-20T19:29:32.142Z,19.27
2023-02-20T19:32:02.587Z,19.17
2023-02-20T19:34:32.535Z,19.21
2023-02-20T19:37:03.533Z,19.25
2023-02-20T19:39:34.613Z,19.28
2023-02-20T19:42:04.644Z,19.28
2023-02-20T19:44:35.555Z,19.28
2023-02-20T19:47:05.730Z,19.41
2023-02-20T19:49:36.091Z,19.35
2023-02-20T19:52:06.026Z,19.39
2023-02-20T19:54:35.818Z,19.45
2023-02-20T19:57:06.470Z,19.45
2023-02-20T19:59:36.262Z,19.54
2023-02-20T20:02:06.303Z,19.75
2023-02-20T20:04:37.413Z,19.85
2023-02-20T20:07:07.405Z,19.85
2023-02-20T20:09:38.165Z,19.82
2023-02-20T20:12:29.554Z,19.80
2023-02-20T20:14:59.449Z,19.77
2023-02-20T20:17:28.993Z,19.65
2023-02-20T20:19:59.579Z,19.59
2023-02-20T20:22:31.806Z,19.61
2023-02-20T20:25:01.873Z,19.63
2023-02-20T20:27:31.653Z,19.70
2023-02-20T20:30:01.344Z,19.66
2023-02-20T20:32:31.105Z,19.73
2023-02-20T20:35:00.898Z,19.82
2023-02-20T20:37:30.652Z,19.59
2023-02-20T20:40:01.527Z,19.27
2023-02-20T20:42:32.335Z,19.07
2023-02-20T20:45:02.178Z,19.00
2023-02-20T20:47:32.664Z,19.08
2023-02-20T20:50:02.667Z,19.22
2023-02-20T20:52:33.938Z,19.27
2023-02-20T20:55:05.527Z,19.31
2023-02-20T20:57:41.777Z,19.41
2023-02-20T21:00:26.339Z,19.35
2023-02-20T21:02:56.445Z,19.32
2023-02-20T21:05:31.058Z,19.34
2023-02-20T21:08:02.328Z,19.31
2023-02-20T21:10:32.314Z,19.25
2023-02-20T21:13:02.578Z,19.22
2023-02-20T21:15:33.468Z,19.27
2023-02-20T21:18:05.204Z,19.24
2023-02-20T21:20:36.118Z,19.08
2023-02-20T21:23:07.533Z,19.03
2023-02-20T21:25:37.422Z,19.00
2023-02-20T21:28:07.028Z,18.96
2023-02-20T21:30:36.772Z,19.06
2023-02-20T21:33:07.500Z,19.08
2023-02-20T21:35:37.471Z,19.03
2023-02-20T21:38:08.020Z,18.80
2023-02-20T21:40:37.954Z,18.68
2023-02-20T21:43:25.939Z,18.67
2023-02-20T21:45:55.923Z,18.71
2023-02-20T21:48:25.689Z,18.67
2023-02-20T21:50:55.397Z,18.59
2023-02-20T21:53:26.541Z,18.50
2023-02-20T21:55:56.157Z,18.40
2023-02-20T21:58:44.973Z,18.43
2023-02-20T22:01:14.755Z,18.43
2023-02-20T22:03:44.677Z,18.39
2023-02-20T22:06:14.124Z,18.39
2023-02-20T22:09:01.962Z,18.39
2023-02-20T22:11:53.475Z,18.40
2023-02-20T22:14:42.085Z,18.35
2023-02-20T22:17:30.368Z,18.35
2023-02-20T22:20:18.681Z,18.26
2023-02-20T22:23:09.717Z,18.28
2023-02-20T22:25:57.832Z,18.18
2023-02-20T22:28:46.964Z,18.15
2023-02-20T22:31:34.901Z,18.09
2023-02-20T22:34:23.012Z,18.15
2023-02-20T22:37:11.017Z,18.15
2023-02-20T22:39:59.199Z,18.16
2023-02-20T22:42:47.476Z,18.16
2023-02-20T22:45:36.911Z,18.15
2023-02-20T22:48:25.176Z,18.08
2023-02-20T22:51:13.709Z,18.01
2023-02-20T22:54:01.766Z,17.98
2023-02-20T22:56:50.093Z,17.95
2023-02-20T22:59:37.797Z,17.95
2023-02-20T23:02:26.894Z,17.95
2023-02-20T23:05:14.797Z,17.89
2023-02-20T23:08:03.187Z,17.85
2023-02-20T23:10:50.864Z,17.84
2023-02-20T23:13:38.968Z,17.77
2023-02-20T23:16:26.953Z,17.77
2023-02-20T23:19:15.198Z,17.73
2023-02-20T23:22:05.809Z,17.68
2023-02-20T23:24:54.100Z,17.67
2023-02-20T23:27:42.330Z,17.75
2023-02-20T23:30:31.169Z,17.81
2023-02-20T23:33:19.201Z,17.82
2023-02-20T23:36:07.474Z,17.85
2023-02-20T23:38:55.463Z,17.98
2023-02-20T23:41:43.629Z,18.04
2023-02-20T23:44:32.830Z,18.06
2023-02-20T23:47:20.864Z,18.10
2023-02-20T23:50:08.689Z,18.12
2023-02-20T23:52:56.829Z,18.12
2023-02-20T23:55:44.719Z,18.15
2023-02-20T23:58:33.185Z,18.15
